Time;durP1;ratioP1;P1;durP2;ratioP2;P2;SDS_P1;SDS_P2;PMS_P1;PMS_P2;Temp;Humidity;BMP_temperature;BMP_pressure;BME280_temperature;BME280_humidity;BME280_pressure;Samples;Min_cycle;Max_cycle;Signal;HPM_P1;HPM_P2
2022/11/14 00:00:00;;;;;;;;;;;;;;;13.53;54.64;101399.66;4982212;28;126468;-63
2022/11/14 00:02:26;;;;;;;;;;;;;;;13.53;54.98;101402.38;4980139;28;118523;-63
2022/11/14 00:04:52;;;;;;;;;;;;;;;13.53;54.69;101396.94;4981388;28;116976;-66
2022/11/14 00:07:18;;;;;;;;;;;;;;;13.53;54.99;101396.94;4963025;28;111246;-64
2022/11/14 00:09:44;;;;;;;;;;;;;;;13.51;54.80;101398.00;4981614;28;126610;-66
2022/11/14 00:12:13;;;;;;;;;;;;;;;13.52;54.67;101393.44;4981633;27;116349;-64
2022/11/14 00:14:39;;;;;;;;;;;;;;;13.51;54.95;101398.00;4981817;28;128160;-67
2022/11/14 00:17:05;;;;;;;;;;;;;;;13.52;54.94;101388.03;4980651;27;99050;-64
2022/11/14 00:19:31;;;;;;;;;;;;;;;13.51;54.80;101389.88;4980372;27;125564;-67
2022/11/14 00:21:59;;;;;;;;;;;;;;;13.52;54.54;101382.59;4982228;27;108743;-66
2022/11/14 00:24:25;;;;;;;;;;;;;;;13.51;54.86;101375.53;4979462;27;128139;-64
2022/11/14 00:26:51;;;;;;;;;;;;;;;13.51;54.68;101391.78;4980254;28;127316;-66
2022/11/14 00:29:17;;;;;;;;;;;;;;;13.49;54.79;101389.34;4978814;28;126645;-64
2022/11/14 00:31:43;;;;;;;;;;;;;;;13.48;54.70;101382.31;4979629;28;116896;-63
2022/11/14 00:34:09;;;;;;;;;;;;;;;13.48;54.94;101384.22;4981010;28;128428;-66
2022/11/14 00:36:35;;;;;;;;;;;;;;;13.47;54.88;101382.56;4982065;27;125937;-64
2022/11/14 00:39:01;;;;;;;;;;;;;;;13.47;54.87;101374.44;4978543;28;126957;-63
2022/11/14 00:41:27;;;;;;;;;;;;;;;13.45;55.00;101377.41;4964310;28;117030;-67
2022/11/14 00:43:53;;;;;;;;;;;;;;;13.44;54.78;101358.72;4961388;28;125989;-64
2022/11/14 00:46:19;;;;;;;;;;;;;;;13.42;55.13;101364.41;4977489;27;128577;-67
2022/11/14 00:48:45;;;;;;;;;;;;;;;13.40;54.67;101369.28;4981508;27;127198;-66
2022/11/14 00:51:11;;;;;;;;;;;;;;;13.39;54.66;101364.09;4962935;27;101432;-63
2022/11/14 00:53:37;;;;;;;;;;;;;;;13.38;54.96;101363.28;4961304;28;126183;-66
2022/11/14 00:56:03;;;;;;;;;;;;;;;13.36;54.63;101351.09;4944468;28;127838;-63
2022/11/14 00:58:28;;;;;;;;;;;;;;;13.34;54.77;101356.78;4959836;28;126447;-63
2022/11/14 01:00:54;;;;;;;;;;;;;;;13.33;54.70;101341.63;4980773;27;115545;-67
2022/11/14 01:03:20;;;;;;;;;;;;;;;13.30;55.03;101344.84;4982191;27;102191;-63
2022/11/14 01:05:47;;;;;;;;;;;;;;;13.30;54.65;101346.75;4981630;27;128079;-66
2022/11/14 01:08:14;;;;;;;;;;;;;;;13.29;55.10;101335.09;4980475;27;121524;-66
2022/11/14 01:10:44;;;;;;;;;;;;;;;13.27;55.04;101329.13;4959973;28;109182;-64
2022/11/14 01:13:10;;;;;;;;;;;;;;;13.26;54.83;101341.84;4981312;27;98510;-63
2022/11/14 01:15:46;;;;;;;;;;;;;;;13.25;54.71;101336.72;4981031;27;98391;-63
2022/11/14 01:18:13;;;;;;;;;;;;;;;13.24;55.02;101332.34;4958269;27;98845;-63
2022/11/14 01:20:40;;;;;;;;;;;;;;;13.23;55.06;101325.31;4980128;28;117222;-66
2022/11/14 01:23:07;;;;;;;;;;;;;;;13.23;55.01;101322.63;4978440;28;98478;-63
2022/11/14 01:25:33;;;;;;;;;;;;;;;13.21;54.95;101314.75;4979113;28;98698;-64
2022/11/14 01:27:59;;;;;;;;;;;;;;;13.22;55.19;101310.13;4980693;28;114071;-66
2022/11/14 01:30:25;;;;;;;;;;;;;;;13.20;55.17;101307.69;4977530;28;114999;-63
2022/11/14 01:32:51;;;;;;;;;;;;;;;13.20;54.86;101298.75;4982677;27;128284;-66
2022/11/14 01:35:17;;;;;;;;;;;;;;;13.19;55.08;101295.22;4977767;28;128859;-66
2022/11/14 01:37:43;;;;;;;;;;;;;;;13.18;54.98;101287.38;4975509;28;127587;-66
2022/11/14 01:40:10;;;;;;;;;;;;;;;13.17;55.04;101288.47;4978617;27;117430;-66
2022/11/14 01:42:36;;;;;;;;;;;;;;;13.15;54.72;101291.41;4961837;28;116936;-66
2022/11/14 01:45:40;;;;;;;;;;;;;;;13.13;54.95;101277.34;4980141;28;127516;-63
2022/11/14 01:48:15;;;;;;;;;;;;;;;13.13;54.61;101271.13;4983598;28;99358;-63
2022/11/14 01:50:41;;;;;;;;;;;;;;;13.09;54.99;101262.72;4955080;27;112778;-63
2022/11/14 01:53:06;;;;;;;;;;;;;;;13.10;54.58;101264.34;4964563;28;128070;-66
2022/11/14 01:55:32;;;;;;;;;;;;;;;13.09;55.07;101256.50;4982014;28;126265;-66
2022/11/14 01:57:58;;;;;;;;;;;;;;;13.07;54.66;101256.75;4966201;28;127493;-63
2022/11/14 02:00:24;;;;;;;;;;;;;;;13.07;54.83;101256.75;4964143;28;116668;-63
2022/11/14 02:02:50;;;;;;;;;;;;;;;13.06;54.99;101265.13;4984462;27;98613;-63
2022/11/14 02:05:16;;;;;;;;;;;;;;;13.05;55.01;101256.22;4979411;28;128165;-66
2022/11/14 02:07:42;;;;;;;;;;;;;;;13.03;54.85;101256.44;4980841;27;129177;-66
2022/11/14 02:10:16;;;;;;;;;;;;;;;13.03;54.72;101252.94;4984890;27;116327;-63
2022/11/14 02:12:42;;;;;;;;;;;;;;;13.02;54.71;101251.31;4976051;28;99353;-66
2022/11/14 02:15:08;;;;;;;;;;;;;;;13.00;54.92;101240.72;4975698;28;122029;-63
2022/11/14 02:17:34;;;;;;;;;;;;;;;12.99;54.70;101241.00;4966210;28;122830;-67
2022/11/14 02:20:10;;;;;;;;;;;;;;;12.97;54.74;101233.16;4965531;27;109939;-63
2022/11/14 02:22:39;;;;;;;;;;;;;;;12.96;54.75;101233.41;4983428;27;98438;-63
2022/11/14 02:25:06;;;;;;;;;;;;;;;12.94;55.05;101231.00;4985190;27;97967;-66
2022/11/14 02:27:32;;;;;;;;;;;;;;;12.92;54.64;101238.53;4978126;28;121406;-63
2022/11/14 02:30:11;;;;;;;;;;;;;;;12.92;54.68;101221.50;4984528;27;114737;-66
2022/11/14 02:32:37;;;;;;;;;;;;;;;12.91;54.87;101219.88;4980935;28;99987;-64
2022/11/14 02:35:03;;;;;;;;;;;;;;;12.89;54.67;101216.59;4981843;28;128168;-66
2022/11/14 02:37:29;;;;;;;;;;;;;;;12.88;54.73;101215.78;4981347;28;126710;-66
2022/11/14 02:39:55;;;;;;;;;;;;;;;12.86;54.89;101211.75;4982483;28;108649;-66
2022/11/14 02:42:20;;;;;;;;;;;;;;;12.85;54.86;101208.22;4982785;27;127921;-66
2022/11/14 02:44:46;;;;;;;;;;;;;;;12.83;54.63;101207.66;4982015;27;127520;-64
2022/11/14 02:47:12;;;;;;;;;;;;;;;12.83;54.96;101204.97;4975482;28;125274;-67
2022/11/14 02:49:38;;;;;;;;;;;;;;;12.81;54.83;101192.75;4983632;27;117338;-63
2022/11/14 02:52:04;;;;;;;;;;;;;;;12.80;54.69;101194.66;4980446;28;117230;-66
2022/11/14 02:54:30;;;;;;;;;;;;;;;12.78;54.79;101200.34;4963962;28;128130;-64
2022/11/14 02:56:56;;;;;;;;;;;;;;;12.76;54.92;101202.50;4960894;28;125424;-63
2022/11/14 02:59:22;;;;;;;;;;;;;;;12.77;54.77;101203.31;4981211;27;114913;-62
2022/11/14 03:01:48;;;;;;;;;;;;;;;12.76;55.09;101198.97;4983458;27;127086;-66
2022/11/14 03:04:13;;;;;;;;;;;;;;;12.75;54.88;101194.66;4981867;28;125846;-64
2022/11/14 03:06:39;;;;;;;;;;;;;;;12.74;54.66;101201.16;4984509;27;128128;-63
2022/11/14 03:09:05;;;;;;;;;;;;;;;12.73;54.92;101203.03;4972822;28;116740;-66
2022/11/14 03:11:31;;;;;;;;;;;;;;;12.73;54.68;101202.19;4982441;28;126017;-66
2022/11/14 03:13:58;;;;;;;;;;;;;;;12.71;54.79;101198.97;4982505;28;128197;-66
2022/11/14 03:16:24;;;;;;;;;;;;;;;12.70;54.97;101202.75;4979897;28;122267;-63
2022/11/14 03:18:50;;;;;;;;;;;;;;;12.69;54.78;101201.94;4982602;28;118272;-63
2022/11/14 03:21:20;;;;;;;;;;;;;;;12.67;54.67;101197.84;4980933;28;128251;-66
2022/11/14 03:23:46;;;;;;;;;;;;;;;12.66;54.55;101197.06;4981352;27;122707;-63
2022/11/14 03:26:12;;;;;;;;;;;;;;;12.65;54.88;101198.09;4982213;28;126722;-63
2022/11/14 03:28:38;;;;;;;;;;;;;;;12.63;54.89;101194.88;4981471;28;98168;-64
2022/11/14 03:31:04;;;;;;;;;;;;;;;12.62;54.78;101197.84;4963556;28;115539;-66
2022/11/14 03:33:31;;;;;;;;;;;;;;;12.60;54.80;101189.97;4978782;28;108952;-66
2022/11/14 03:35:57;;;;;;;;;;;;;;;12.61;54.75;101194.31;4981280;28;100829;-66
2022/11/14 03:38:23;;;;;;;;;;;;;;;12.60;54.78;101187.28;4962066;28;117093;-63
2022/11/14 03:40:52;;;;;;;;;;;;;;;12.59;54.99;101182.94;4980569;28;100578;-66
2022/11/14 03:43:18;;;;;;;;;;;;;;;12.59;54.95;101187.53;4981443;27;98322;-63
2022/11/14 03:45:44;;;;;;;;;;;;;;;12.57;54.81;101185.09;4981928;27;126784;-63
2022/11/14 03:48:10;;;;;;;;;;;;;;;12.57;54.67;101181.56;4981257;27;115981;-63
2022/11/14 03:50:36;;;;;;;;;;;;;;;12.55;54.89;101184.56;4980744;28;116846;-66
2022/11/14 03:53:02;;;;;;;;;;;;;;;12.55;54.75;101181.03;4979420;28;127032;-66
2022/11/14 03:55:28;;;;;;;;;;;;;;;12.55;54.74;101173.72;4981215;27;127453;-63
2022/11/14 03:57:54;;;;;;;;;;;;;;;12.53;54.98;101175.88;4979361;28;116105;-66
2022/11/14 04:00:20;;;;;;;;;;;;;;;12.53;54.67;101173.16;4947995;27;127417;-67
2022/11/14 04:02:46;;;;;;;;;;;;;;;12.51;54.56;101170.75;4962402;28;127968;-66
2022/11/14 04:05:12;;;;;;;;;;;;;;;12.51;54.85;101170.75;4981741;27;99081;-67
2022/11/14 04:07:38;;;;;;;;;;;;;;;12.50;54.99;101171.81;4981327;27;108553;-64
2022/11/14 04:10:05;;;;;;;;;;;;;;;12.49;54.93;101163.97;4982096;27;127256;-64
2022/11/14 04:12:31;;;;;;;;;;;;;;;12.48;54.86;101165.84;4978779;28;125706;-66
2022/11/14 04:14:56;;;;;;;;;;;;;;;12.48;54.62;101165.84;4982164;27;124656;-64
2022/11/14 04:17:22;;;;;;;;;;;;;;;12.47;54.77;101161.53;4977914;28;116533;-64
2022/11/14 04:19:49;;;;;;;;;;;;;;;12.47;54.96;101155.31;4980076;28;128601;-67
2022/11/14 04:22:15;;;;;;;;;;;;;;;12.46;54.62;101159.91;4963104;28;98407;-67
2022/11/14 04:24:41;;;;;;;;;;;;;;;12.45;54.92;101157.44;4954509;28;127564;-64
2022/11/14 04:27:07;;;;;;;;;;;;;;;12.44;54.94;101161.25;4979073;28;103196;-67
2022/11/14 04:29:32;;;;;;;;;;;;;;;12.43;54.66;101155.03;4979310;28;99184;-67
2022/11/14 04:31:58;;;;;;;;;;;;;;;12.44;54.85;101147.72;4977594;28;125274;-67
2022/11/14 04:34:24;;;;;;;;;;;;;;;12.42;54.62;101153.41;4978787;28;127740;-64
2022/11/14 04:36:50;;;;;;;;;;;;;;;12.42;54.67;101147.19;4979311;27;115958;-64
2022/11/14 04:39:17;;;;;;;;;;;;;;;12.41;54.64;101135.53;4958691;28;126681;-67
2022/11/14 04:41:43;;;;;;;;;;;;;;;12.40;54.96;101142.03;4975671;27;124675;-67
2022/11/14 04:44:09;;;;;;;;;;;;;;;12.39;54.79;101132.28;4977343;28;125786;-64
2022/11/14 04:46:34;;;;;;;;;;;;;;;12.39;54.65;101135.00;4980286;28;117995;-64
2022/11/14 04:49:00;;;;;;;;;;;;;;;12.38;54.63;101136.06;4962742;28;127333;-67
2022/11/14 04:51:26;;;;;;;;;;;;;;;12.37;54.67;101129.03;4962537;28;104270;-67
2022/11/14 04:53:52;;;;;;;;;;;;;;;12.36;54.76;101121.19;4962284;28;127277;-63
2022/11/14 04:56:21;;;;;;;;;;;;;;;12.36;54.66;101123.88;4966285;28;115409;-64
2022/11/14 04:58:48;;;;;;;;;;;;;;;12.36;54.97;101126.59;4982014;28;98403;-66
2022/11/14 05:01:14;;;;;;;;;;;;;;;12.33;54.79;101114.41;4980179;28;125867;-67
2022/11/14 05:03:40;;;;;;;;;;;;;;;12.32;54.66;101120.91;4979932;28;100823;-64
2022/11/14 05:06:06;;;;;;;;;;;;;;;12.32;54.56;101103.88;4980873;28;115680;-67
2022/11/14 05:08:32;;;;;;;;;;;;;;;12.30;54.64;101106.84;4961655;28;98309;-68
2022/11/14 05:10:58;;;;;;;;;;;;;;;12.29;54.59;101110.59;4962329;28;123611;-67
2022/11/14 05:13:24;;;;;;;;;;;;;;;12.29;54.87;101110.59;4979766;28;128392;-64
2022/11/14 05:15:50;;;;;;;;;;;;;;;12.28;54.89;101107.09;4980356;28;109431;-64
2022/11/14 05:18:15;;;;;;;;;;;;;;;12.26;54.70;101105.72;4978959;28;127353;-67
2022/11/14 05:20:41;;;;;;;;;;;;;;;12.27;54.76;101110.06;4979583;28;127962;-69
2022/11/14 05:23:18;;;;;;;;;;;;;;;12.27;54.75;101115.47;4940686;28;127087;-64
2022/11/14 05:25:44;;;;;;;;;;;;;;;12.27;54.91;101101.97;4963402;28;98228;-67
2022/11/14 05:28:10;;;;;;;;;;;;;;;12.26;54.90;101113.81;4978609;28;129012;-67
2022/11/14 05:30:35;;;;;;;;;;;;;;;12.26;54.82;101108.41;4979664;28;126859;-64
2022/11/14 05:33:01;;;;;;;;;;;;;;;12.25;54.84;101109.50;4961239;28;127507;-67
2022/11/14 05:35:27;;;;;;;;;;;;;;;12.25;54.79;101104.09;4979598;28;97963;-64
2022/11/14 05:37:53;;;;;;;;;;;;;;;12.23;54.82;101104.38;4979277;28;117516;-67
2022/11/14 05:40:19;;;;;;;;;;;;;;;12.23;54.62;101098.97;4978525;27;128521;-63
2022/11/14 05:42:45;;;;;;;;;;;;;;;12.23;54.80;101098.97;4976585;27;128372;-63
2022/11/14 05:45:11;;;;;;;;;;;;;;;12.22;54.67;101107.31;4958677;28;116289;-63
2022/11/14 05:47:37;;;;;;;;;;;;;;;12.22;54.86;101107.31;4969715;27;126897;-63
2022/11/14 05:50:03;;;;;;;;;;;;;;;12.22;54.91;101105.44;4975700;28;126866;-63
2022/11/14 05:52:30;;;;;;;;;;;;;;;12.21;54.69;101103.81;4975632;28;98621;-66
2022/11/14 05:54:56;;;;;;;;;;;;;;;12.22;54.92;101101.91;4974743;28;112157;-63
2022/11/14 05:57:21;;;;;;;;;;;;;;;12.21;54.93;101101.09;4974704;27;128987;-66
2022/11/14 05:59:47;;;;;;;;;;;;;;;12.21;54.66;101105.69;4973911;28;119291;-66
2022/11/14 06:02:13;;;;;;;;;;;;;;;12.21;54.82;101098.41;4978028;27;126743;-63
2022/11/14 06:04:39;;;;;;;;;;;;;;;12.21;54.72;101100.28;4979147;28;118214;-66
2022/11/14 06:07:05;;;;;;;;;;;;;;;12.20;55.00;101110.28;4959563;28;128160;-62
2022/11/14 06:09:31;;;;;;;;;;;;;;;12.20;54.62;101117.59;4979617;28;98412;-63
2022/11/14 06:11:57;;;;;;;;;;;;;;;12.18;54.82;101107.06;4980085;28;126462;-67
2022/11/14 06:14:23;;;;;;;;;;;;;;;12.17;54.77;101108.09;4960136;28;99062;-66
2022/11/14 06:16:49;;;;;;;;;;;;;;;12.19;54.73;101113.28;4979644;28;128335;-67
2022/11/14 06:19:15;;;;;;;;;;;;;;;12.17;54.82;101116.22;4978026;28;127115;-66
2022/11/14 06:21:41;;;;;;;;;;;;;;;12.18;54.70;101117.88;4977289;28;97789;-63
2022/11/14 06:24:07;;;;;;;;;;;;;;;12.18;54.71;101115.16;4979167;28;117428;-64
2022/11/14 06:26:33;;;;;;;;;;;;;;;12.19;54.90;101122.19;4979227;27;112217;-67
2022/11/14 06:28:59;;;;;;;;;;;;;;;12.19;54.52;101129.50;4983026;28;98590;-66
2022/11/14 06:31:25;;;;;;;;;;;;;;;12.19;54.47;101130.28;4983006;28;97852;-63
2022/11/14 06:33:51;;;;;;;;;;;;;;;12.20;54.85;101123.00;4983026;28;117164;-66
2022/11/14 06:36:17;;;;;;;;;;;;;;;12.21;54.70;101136.25;4981154;28;108076;-63
2022/11/14 06:38:43;;;;;;;;;;;;;;;12.22;54.71;101143.28;4979893;27;128174;-66
2022/11/14 06:41:19;;;;;;;;;;;;;;;12.23;54.67;101147.63;4980473;28;127470;-63
2022/11/14 06:43:46;;;;;;;;;;;;;;;12.24;54.44;101148.44;4961720;28;97987;-66
2022/11/14 06:46:14;;;;;;;;;;;;;;;12.25;54.59;101150.84;4980803;28;98176;-63
2022/11/14 06:48:40;;;;;;;;;;;;;;;12.27;54.66;101139.81;4981023;28;99378;-66
2022/11/14 06:51:06;;;;;;;;;;;;;;;12.29;54.63;101143.03;4981149;28;97940;-66
2022/11/14 06:53:33;;;;;;;;;;;;;;;12.30;54.47;101136.59;4978599;28;116641;-63
2022/11/14 06:56:06;;;;;;;;;;;;;;;12.32;54.52;101134.41;4965071;28;98352;-67
2022/11/14 06:58:34;;;;;;;;;;;;;;;12.34;54.70;101137.69;4957531;28;98397;-63
2022/11/14 07:01:26;;;;;;;;;;;;;;;12.36;54.52;101138.22;4984019;27;97716;-63
2022/11/14 07:03:52;;;;;;;;;;;;;;;12.38;54.38;101138.78;4977730;28;115859;-63
2022/11/14 07:06:20;;;;;;;;;;;;;;;12.42;54.47;101139.06;4978745;28;100460;-66
2022/11/14 07:08:46;;;;;;;;;;;;;;;12.44;54.51;101128.78;4981616;27;125651;-63
2022/11/14 07:11:21;;;;;;;;;;;;;;;12.47;54.30;101123.66;4983301;27;124111;-63
2022/11/14 07:13:54;;;;;;;;;;;;;;;12.51;54.45;101126.66;4982696;28;97877;-66
2022/11/14 07:16:30;;;;;;;;;;;;;;;12.53;54.46;101124.50;4976591;28;111665;-63
2022/11/14 07:18:59;;;;;;;;;;;;;;;12.56;54.32;101129.38;4980326;28;122124;-63
2022/11/14 07:21:26;;;;;;;;;;;;;;;12.61;53.98;101128.59;4981615;27;126559;-66
2022/11/14 07:23:52;;;;;;;;;;;;;;;12.62;54.29;101120.22;4981863;28;115827;-63
2022/11/14 07:26:18;;;;;;;;;;;;;;;12.65;54.04;101127.78;4978781;27;125990;-64
2022/11/14 07:28:44;;;;;;;;;;;;;;;12.70;54.03;101132.44;4963446;28;112843;-66
2022/11/14 07:31:11;;;;;;;;;;;;;;;12.73;54.14;101119.19;4982853;28;97939;-63
2022/11/14 07:33:37;;;;;;;;;;;;;;;12.77;54.08;101125.69;4973622;28;98263;-63
2022/11/14 07:36:04;;;;;;;;;;;;;;;12.82;54.04;101129.50;4981328;28;98259;-66
2022/11/14 07:38:31;;;;;;;;;;;;;;;12.89;53.73;101127.31;4982058;27;98301;-63
2022/11/14 07:41:01;;;;;;;;;;;;;;;12.95;53.70;101134.38;4981360;28;98183;-66
2022/11/14 07:43:27;;;;;;;;;;;;;;;13.03;53.68;101129.25;4975088;27;116105;-66
2022/11/14 07:45:53;;;;;;;;;;;;;;;13.13;53.80;101128.47;4981204;28;127521;-67
2022/11/14 07:48:20;;;;;;;;;;;;;;;13.28;53.43;101122.28;4981990;28;98321;-63
2022/11/14 07:50:46;;;;;;;;;;;;;;;13.49;53.11;101132.06;4960075;28;98041;-66
2022/11/14 07:53:14;;;;;;;;;;;;;;;13.68;53.20;101120.69;4982019;27;106892;-63
2022/11/14 07:55:40;;;;;;;;;;;;;;;13.84;53.07;101125.00;4982789;27;98570;-64
2022/11/14 07:58:06;;;;;;;;;;;;;;;14.06;52.83;101126.56;4980646;27;126935;-64
2022/11/14 08:00:31;;;;;;;;;;;;;;;14.32;52.58;101114.56;4980839;28;129444;-63
2022/11/14 08:02:57;;;;;;;;;;;;;;;14.58;52.31;101115.34;4981197;28;117606;-63
2022/11/14 08:05:23;;;;;;;;;;;;;;;14.85;51.80;101111.38;4980210;28;127910;-64
2022/11/14 08:07:52;;;;;;;;;;;;;;;15.18;51.66;101112.53;4981271;27;129374;-67
2022/11/14 08:10:18;;;;;;;;;;;;;;;15.52;51.48;101109.00;4980101;28;126511;-67
2022/11/14 08:12:44;;;;;;;;;;;;;;;15.87;51.13;101097.03;4980769;28;117285;-66
2022/11/14 08:15:11;;;;;;;;;;;;;;;16.22;50.92;101112.16;4965704;28;98043;-67
2022/11/14 08:17:37;;;;;;;;;;;;;;;16.59;50.61;101103.28;4966314;28;122738;-67
2022/11/14 08:20:04;;;;;;;;;;;;;;;17.01;50.35;101096.19;4976585;28;98374;-67
2022/11/14 08:22:30;;;;;;;;;;;;;;;17.37;50.19;101101.06;4980946;28;98082;-65
2022/11/14 08:24:56;;;;;;;;;;;;;;;17.65;50.04;101100.06;4980448;28;98492;-64
2022/11/14 08:27:23;;;;;;;;;;;;;;;17.98;49.97;101091.03;4961876;28;121458;-64
2022/11/14 08:29:50;;;;;;;;;;;;;;;18.30;49.96;101090.94;4980592;28;117530;-64
2022/11/14 08:32:16;;;;;;;;;;;;;;;18.61;49.83;101090.31;4980583;28;98206;-64
2022/11/14 08:34:42;;;;;;;;;;;;;;;18.91;49.82;101082.59;4982760;28;125781;-67
2022/11/14 08:37:08;;;;;;;;;;;;;;;19.23;49.71;101081.56;4981461;28;126898;-67
2022/11/14 08:39:34;;;;;;;;;;;;;;;19.54;49.79;101071.47;4982991;28;127806;-67
2022/11/14 08:42:00;;;;;;;;;;;;;;;19.83;49.62;101086.59;4982754;28;117152;-65
2022/11/14 08:44:25;;;;;;;;;;;;;;;20.10;49.75;101088.31;4982743;28;106919;-64
2022/11/14 08:46:51;;;;;;;;;;;;;;;20.33;49.73;101081.63;4985118;27;127799;-67
2022/11/14 08:49:17;;;;;;;;;;;;;;;20.52;49.88;101099.75;4980760;28;126240;-65
2022/11/14 08:51:43;;;;;;;;;;;;;;;20.71;49.97;101108.50;4944213;28;117687;-65
2022/11/14 08:54:09;;;;;;;;;;;;;;;20.86;50.04;101098.97;4966974;28;127563;-67
2022/11/14 08:56:35;;;;;;;;;;;;;;;21.02;50.09;101108.34;4982060;27;99119;-65
2022/11/14 08:59:04;;;;;;;;;;;;;;;21.18;50.19;101092.22;4980140;28;127338;-68
2022/11/14 09:01:31;;;;;;;;;;;;;;;21.35;50.15;101088.69;4981718;28;116307;-68
2022/11/14 09:03:57;;;;;;;;;;;;;;;21.53;50.03;101084.75;4938950;28;98406;-67
2022/11/14 09:06:23;;;;;;;;;;;;;;;21.73;50.24;101083.28;4951127;28;125661;-65
2022/11/14 09:08:49;;;;;;;;;;;;;;;21.93;50.22;101084.50;4979774;28;127475;-65
2022/11/14 09:11:15;;;;;;;;;;;;;;;22.13;50.03;101083.00;4983319;28;117774;-68
2022/11/14 09:13:41;;;;;;;;;;;;;;;22.30;49.75;101085.63;4982463;28;129039;-67
2022/11/14 09:16:07;;;;;;;;;;;;;;;22.42;50.12;101078.63;4981356;28;129020;-66
2022/11/14 09:18:33;;;;;;;;;;;;;;;22.47;50.00;101059.19;4981774;28;127244;-65
2022/11/14 09:21:03;;;;;;;;;;;;;;;22.50;50.07;101047.56;4980725;28;118463;-65
2022/11/14 09:23:29;;;;;;;;;;;;;;;22.45;50.57;101037.56;4983394;28;101525;-66
2022/11/14 09:25:55;;;;;;;;;;;;;;;22.40;50.73;101031.47;4984003;28;98178;-66
2022/11/14 09:28:22;;;;;;;;;;;;;;;22.34;50.75;101035.56;4982330;28;98067;-67
2022/11/14 09:30:48;;;;;;;;;;;;;;;22.27;51.17;101042.34;4984389;28;98061;-65
2022/11/14 09:33:14;;;;;;;;;;;;;;;22.21;51.39;101034.66;4981775;28;98370;-65
2022/11/14 09:35:40;;;;;;;;;;;;;;;22.12;51.43;101031.13;4961653;28;124331;-66
2022/11/14 09:38:08;;;;;;;;;;;;;;;22.01;51.65;101034.25;4951483;28;125413;-65
2022/11/14 09:40:43;;;;;;;;;;;;;;;21.90;51.66;101041.25;4966862;28;97870;-68
2022/11/14 09:43:09;;;;;;;;;;;;;;;21.76;51.90;101044.19;4957940;28;98039;-65
2022/11/14 09:45:35;;;;;;;;;;;;;;;21.63;52.01;101039.75;4981105;27;98693;-65
2022/11/14 09:48:08;;;;;;;;;;;;;;;21.49;52.26;101034.44;4959687;28;117928;-65
2022/11/14 09:50:39;;;;;;;;;;;;;;;21.37;52.36;101044.47;4963644;28;97950;-65
2022/11/14 09:53:09;;;;;;;;;;;;;;;21.23;52.50;101045.47;4979958;28;126227;-68
2022/11/14 09:55:35;;;;;;;;;;;;;;;21.11;52.46;101041.78;4958987;28;120915;-65
2022/11/14 09:58:01;;;;;;;;;;;;;;;20.97;52.65;101037.25;4984119;27;120771;-67
2022/11/14 10:00:57;;;;;;;;;;;;;;;20.85;52.55;101031.63;4965308;28;113526;-68
2022/11/14 10:03:29;;;;;;;;;;;;;;;20.73;52.83;101045.16;4967168;28;124684;-67
2022/11/14 10:06:07;;;;;;;;;;;;;;;20.61;52.75;101032.13;4965594;27;98941;-66
2022/11/14 10:08:46;;;;;;;;;;;;;;;20.49;52.94;101026.47;4969414;28;98902;-65
2022/11/14 10:11:33;;;;;;;;;;;;;;;20.39;52.95;101016.59;4967911;27;98374;-65
2022/11/14 10:14:26;;;;;;;;;;;;;;;20.27;52.95;101016.41;4990850;27;98254;-67
2022/11/14 10:17:46;;;;;;;;;;;;;;;20.17;53.03;101014.00;4976342;28;98513;-67
2022/11/14 10:20:26;;;;;;;;;;;;;;;20.05;52.96;101009.13;4923875;28;98100;-67
2022/11/14 10:23:07;;;;;;;;;;;;;;;19.97;53.10;101001.72;4945771;28;98122;-65
2022/11/14 10:25:43;;;;;;;;;;;;;;;19.90;53.11;101004.09;4984854;28;97714;-67
2022/11/14 10:28:30;;;;;;;;;;;;;;;19.83;53.13;100999.88;4969542;28;98209;-65
2022/11/14 10:31:02;;;;;;;;;;;;;;;19.78;53.09;101000.03;4988402;28;98003;-65
2022/11/14 10:33:32;;;;;;;;;;;;;;;19.75;53.11;100997.13;4990372;27;98124;-65
2022/11/14 10:36:05;;;;;;;;;;;;;;;19.72;52.95;101000.47;4984541;27;101859;-67
2022/11/14 10:38:47;;;;;;;;;;;;;;;19.70;53.09;101000.00;4967942;28;98150;-67
2022/11/14 10:41:12;;;;;;;;;;;;;;;19.67;53.04;101004.16;4985713;28;97675;-67
2022/11/14 10:43:45;;;;;;;;;;;;;;;19.66;52.96;101001.75;4984956;28;98941;-65
2022/11/14 10:46:22;;;;;;;;;;;;;;;19.64;53.06;100999.31;4964954;28;98932;-65
2022/11/14 10:48:49;;;;;;;;;;;;;;;19.63;53.08;101000.44;4981546;28;125546;-65
2022/11/14 10:51:17;;;;;;;;;;;;;;;19.62;52.93;100996.09;4984993;28;97892;-65
2022/11/14 10:54:02;;;;;;;;;;;;;;;19.58;53.13;100995.91;4984581;28;97994;-67
2022/11/14 10:56:28;;;;;;;;;;;;;;;19.55;53.08;100993.00;4966803;27;123351;-67
2022/11/14 10:58:54;;;;;;;;;;;;;;;19.49;53.15;100996.97;4984839;27;98615;-67
2022/11/14 11:01:40;;;;;;;;;;;;;;;19.44;53.10;101000.66;4985555;27;125009;-65
2022/11/14 11:04:25;;;;;;;;;;;;;;;19.38;53.08;100994.53;4983572;28;115004;-64
2022/11/14 11:12:54;;;;;;;;;;;;;;;19.23;53.29;101002.31;4960842;27;97740;-65
2022/11/14 11:15:24;;;;;;;;;;;;;;;19.17;53.32;100998.88;4985240;28;97643;-67
2022/11/14 11:17:57;;;;;;;;;;;;;;;19.09;53.42;100986.78;4982654;28;98171;-65
2022/11/14 11:20:33;;;;;;;;;;;;;;;19.04;53.38;100986.13;4984080;28;98238;-65
2022/11/14 11:23:07;;;;;;;;;;;;;;;18.96;53.53;100975.94;4982531;28;97851;-64
2022/11/14 11:25:33;;;;;;;;;;;;;;;18.88;53.45;100972.84;4983848;28;98004;-67
2022/11/14 11:28:06;;;;;;;;;;;;;;;18.82;53.70;100982.28;4984208;28;127901;-64
2022/11/14 11:30:32;;;;;;;;;;;;;;;18.75;53.61;100972.91;4980589;28;99273;-67
2022/11/14 11:33:19;;;;;;;;;;;;;;;18.69;53.68;100969.44;4963201;28;127303;-64
2022/11/14 11:35:46;;;;;;;;;;;;;;;18.61;53.72;100962.81;4983391;28;97925;-67
2022/11/14 11:38:12;;;;;;;;;;;;;;;18.56;53.66;100954.75;4949366;28;98311;-67
2022/11/14 11:40:40;;;;;;;;;;;;;;;18.50;53.76;100957.88;4984124;27;98964;-67
2022/11/14 11:43:35;;;;;;;;;;;;;;;18.46;53.86;100951.44;4982682;28;98342;-67
2022/11/14 11:46:04;;;;;;;;;;;;;;;18.38;53.83;100959.22;4965136;28;115331;-67
2022/11/14 11:48:39;;;;;;;;;;;;;;;18.35;53.89;100953.59;4982812;28;128310;-64
2022/11/14 11:51:06;;;;;;;;;;;;;;;18.35;53.76;100948.97;4964222;28;126196;-65
2022/11/14 11:53:41;;;;;;;;;;;;;;;18.39;53.93;100952.69;4946467;28;98452;-64
2022/11/14 11:56:12;;;;;;;;;;;;;;;18.41;53.79;100946.91;4982697;28;97908;-64
2022/11/14 11:58:49;;;;;;;;;;;;;;;18.41;53.86;100957.81;4965909;28;109892;-65
2022/11/14 12:01:15;;;;;;;;;;;;;;;18.43;53.92;100949.31;4981232;27;98769;-64
2022/11/14 12:03:49;;;;;;;;;;;;;;;18.43;53.70;100944.69;4986539;28;108290;-67
2022/11/14 12:06:26;;;;;;;;;;;;;;;18.42;53.84;100948.50;4979829;28;98151;-65
2022/11/14 12:09:13;;;;;;;;;;;;;;;18.40;53.77;100942.56;4965262;28;98276;-67
2022/11/14 12:11:41;;;;;;;;;;;;;;;18.37;53.78;100943.19;4960851;28;115535;-64
2022/11/14 12:14:44;;;;;;;;;;;;;;;18.36;53.82;100944.31;4965125;28;120024;-64
2022/11/14 12:17:55;;;;;;;;;;;;;;;18.35;53.91;100953.59;4979981;28;117997;-66
2022/11/14 12:20:44;;;;;;;;;;;;;;;18.31;53.94;100944.41;4979921;28;98723;-66
2022/11/14 12:23:41;;;;;;;;;;;;;;;18.28;53.98;100951.28;4962919;28;128347;-67
2022/11/14 12:26:35;;;;;;;;;;;;;;;18.26;53.97;100947.25;4986933;27;98035;-67
2022/11/14 12:29:06;;;;;;;;;;;;;;;18.25;54.01;100948.38;4985981;28;98048;-65
2022/11/14 12:31:34;;;;;;;;;;;;;;;18.22;53.99;100948.97;4965429;28;119400;-64
2022/11/14 12:34:02;;;;;;;;;;;;;;;18.18;53.96;100946.06;4959634;28;98226;-67
2022/11/14 12:36:29;;;;;;;;;;;;;;;18.17;53.93;100944.44;4968042;28;126306;-65
2022/11/14 12:38:55;;;;;;;;;;;;;;;18.14;53.86;100953.25;4960999;28;112953;-64
2022/11/14 12:41:33;;;;;;;;;;;;;;;18.11;54.17;100945.66;4964722;28;128012;-67
2022/11/14 12:44:37;;;;;;;;;;;;;;;18.08;53.70;100943.56;4966502;28;99302;-64